Time;durP1;ratioP1;P1;durP2;ratioP2;P2;SDS_P1;SDS_P2;PMS_P1;PMS_P2;Temp;Humidity;BMP_temperature;BMP_pressure;BME280_temperature;BME280_humidity;BME280_pressure;Samples;Min_cycle;Max_cycle;Signal;HPM_P1;HPM_P2
2021/07/10 00:01:08;;;;;;;18.92;10.30;;;;;;;19.90;87.11;100703.48;1723318;79;28235;-79
2021/07/10 00:03:35;;;;;;;19.77;11.33;;;;;;;19.90;87.26;100695.86;1734194;79;25324;-79
2021/07/10 00:06:02;;;;;;;16.48;10.32;;;;;;;19.89;87.19;100693.67;1750134;79;25892;-79
2021/07/10 00:08:29;;;;;;;17.40;10.48;;;;;;;19.86;87.22;100702.33;1733250;80;25821;-79
2021/07/10 00:10:56;;;;;;;17.50;10.08;;;;;;;19.85;87.24;100699.84;1721364;79;25878;-79
2021/07/10 00:13:24;;;;;;;15.70;10.30;;;;;;;19.84;87.34;100700.92;1710824;83;27611;-78
2021/07/10 00:15:51;;;;;;;22.70;10.53;;;;;;;19.82;87.39;100707.14;1722181;82;25814;-79
2021/07/10 00:18:18;;;;;;;16.35;11.68;;;;;;;19.78;87.41;100699.98;1714095;81;25700;-79
2021/07/10 00:20:46;;;;;;;21.80;10.00;;;;;;;19.77;87.49;100701.59;1674743;82;25958;-79
2021/07/10 00:23:13;;;;;;;16.93;10.03;;;;;;;19.75;87.66;100699.13;1736666;81;25801;-79
2021/07/10 00:25:40;;;;;;;17.37;11.10;;;;;;;19.73;87.70;100700.44;1734187;81;27518;-78
2021/07/10 00:28:07;;;;;;;17.60;9.43;;;;;;;19.71;87.75;100702.05;1749776;79;25875;-79
2021/07/10 00:30:36;;;;;;;16.77;9.85;;;;;;;19.71;87.82;100710.20;1700142;79;25939;-79
2021/07/10 00:33:03;;;;;;;19.95;10.78;;;;;;;19.71;87.89;100717.00;1775090;79;25856;-79
2021/07/10 00:35:30;;;;;;;11.95;9.85;;;;;;;19.71;87.84;100721.08;1776113;79;25776;-79
2021/07/10 00:37:57;;;;;;;18.80;9.88;;;;;;;19.71;87.90;100721.08;1731071;79;27525;-79
2021/07/10 00:40:25;;;;;;;13.83;9.88;;;;;;;19.68;88.02;100722.91;1707169;80;26397;-79
2021/07/10 00:42:52;;;;;;;12.88;9.75;;;;;;;19.67;88.14;100720.45;1707851;83;25856;-79
2021/07/10 00:45:19;;;;;;;16.57;11.38;;;;;;;19.66;88.27;100716.89;1704938;83;25653;-79
2021/07/10 00:47:46;;;;;;;16.45;9.58;;;;;;;19.66;88.15;100718.25;1673272;82;25786;-79
2021/07/10 00:50:18;;;;;;;16.57;9.83;;;;;;;19.66;88.29;100707.91;1650208;83;27376;-79
2021/07/10 00:52:45;;;;;;;16.27;9.40;;;;;;;19.67;88.47;100707.69;1713908;82;25970;-79
2021/07/10 00:55:12;;;;;;;17.00;9.78;;;;;;;19.68;88.60;100717.47;1715382;82;25770;-78
2021/07/10 00:57:42;;;;;;;18.60;10.00;;;;;;;19.69;88.73;100715.59;1692263;82;25841;-79
2021/07/10 01:00:16;;;;;;;18.85;10.23;;;;;;;19.71;88.95;100708.84;1646547;84;25920;-79
2021/07/10 01:02:46;;;;;;;19.52;10.85;;;;;;;19.73;89.01;100699.91;1728097;82;27419;-78
2021/07/10 01:05:18;;;;;;;22.57;10.67;;;;;;;19.72;89.25;100694.17;1731511;81;25968;-79
2021/07/10 01:07:45;;;;;;;17.75;10.63;;;;;;;19.71;89.34;100693.06;1690020;82;25730;-79
2021/07/10 01:10:13;;;;;;;13.43;9.95;;;;;;;19.71;89.51;100692.54;1675120;82;26110;-79
2021/07/10 01:12:44;;;;;;;15.40;10.82;;;;;;;19.75;89.64;100695.58;1723364;82;25857;-78
2021/07/10 01:15:14;;;;;;;14.13;10.23;;;;;;;19.77;89.77;100695.63;1690150;82;27538;-79
2021/07/10 01:17:45;;;;;;;13.68;10.82;;;;;;;19.78;89.80;100689.11;1668334;82;25885;-78
2021/07/10 01:20:17;;;;;;;17.02;11.95;;;;;;;19.81;89.86;100689.99;1656177;82;25828;-78
2021/07/10 01:22:45;;;;;;;16.37;11.18;;;;;;;19.83;89.83;100695.18;1735224;80;25880;-79
2021/07/10 01:25:16;;;;;;;18.87;10.68;;;;;;;19.84;90.07;100688.69;1736858;80;26611;-79
2021/07/10 01:27:43;;;;;;;21.25;11.40;;;;;;;19.84;90.08;100685.97;1736355;80;27551;-79
2021/07/10 01:30:15;;;;;;;18.45;11.18;;;;;;;19.86;90.18;100685.19;1756489;80;25818;-79
2021/07/10 01:32:46;;;;;;;18.42;10.58;;;;;;;19.86;90.19;100684.66;1684652;83;25899;-79
2021/07/10 01:35:13;;;;;;;16.87;11.03;;;;;;;19.88;90.25;100679.80;1707001;82;26205;-79
2021/07/10 01:37:44;;;;;;;16.97;11.33;;;;;;;19.90;90.32;100676.83;1733519;80;25794;-79
2021/07/10 01:40:16;;;;;;;;;;;;;;;19.91;90.39;100665.70;1728605;81;27477;-79
2021/07/10 01:42:43;;;;;;;21.73;11.68;;;;;;;19.90;90.58;100669.50;1712257;82;25893;-79
2021/07/10 01:45:12;;;;;;;17.40;11.53;;;;;;;19.91;90.68;100663.50;1743787;80;25855;-78
2021/07/10 01:47:40;;;;;;;16.73;11.20;;;;;;;19.92;90.59;100663.28;1741130;80;25719;-79
2021/07/10 01:50:09;;;;;;;12.13;10.28;;;;;;;19.92;90.69;100666.53;1769481;80;25747;-79
2021/07/10 01:52:39;;;;;;;22.65;11.25;;;;;;;19.91;90.72;100662.98;1716738;81;27345;-79
2021/07/10 01:55:09;;;;;;;19.90;10.78;;;;;;;19.92;90.76;100663.28;1686270;83;25841;-78
2021/07/10 01:57:41;;;;;;;17.67;11.12;;;;;;;19.93;90.84;100666.83;1688229;83;25902;-79
2021/07/10 02:00:13;;;;;;;17.77;11.78;;;;;;;19.95;90.88;100661.41;1713833;83;26148;-79
2021/07/10 02:02:40;;;;;;;18.85;12.80;;;;;;;19.96;90.81;100656.28;1723207;80;25859;-78
2021/07/10 02:05:10;;;;;;;19.85;12.40;;;;;;;19.98;90.83;100669.09;1736505;80;27534;-78
2021/07/10 02:07:38;;;;;;;16.00;10.65;;;;;;;19.98;90.75;100668.25;1766912;80;25909;-78
2021/07/10 02:10:09;;;;;;;18.90;11.93;;;;;;;19.97;90.70;100665.27;1768653;80;25810;-79
2021/07/10 02:12:37;;;;;;;14.53;11.97;;;;;;;19.94;90.72;100663.86;1742209;80;25822;-78
2021/07/10 02:15:07;;;;;;;16.75;13.30;;;;;;;19.95;90.82;100672.28;1747319;80;25865;-78
2021/07/10 02:17:35;;;;;;;15.75;10.58;;;;;;;19.95;90.69;100675.00;1687746;83;27935;-79
2021/07/10 02:20:09;;;;;;;18.85;11.53;;;;;;;19.95;90.70;100676.92;1711464;83;26295;-78
2021/07/10 02:22:36;;;;;;;21.95;12.40;;;;;;;19.95;90.75;100668.20;1740979;80;25738;-79
2021/07/10 02:25:08;;;;;;;16.30;12.78;;;;;;;19.95;90.87;100666.84;1736265;80;25924;-78
2021/07/10 02:27:35;;;;;;;20.82;13.70;;;;;;;19.95;90.91;100672.84;1744367;80;25896;-78
2021/07/10 02:30:07;;;;;;;20.35;13.83;;;;;;;19.93;90.81;100674.43;1711668;83;28165;-78
2021/07/10 02:32:35;;;;;;;21.82;13.58;;;;;;;19.91;91.01;100675.73;1686085;83;25823;-79
2021/07/10 02:35:05;;;;;;;25.27;16.12;;;;;;;19.84;91.08;100676.45;1662958;82;26551;-78
2021/07/10 02:37:32;;;;;;;22.50;15.20;;;;;;;19.80;91.21;100678.81;1754279;81;25965;-78
2021/07/10 02:39:59;;;;;;;22.15;13.88;;;;;;;19.75;91.36;100678.75;1695290;83;25795;-78
2021/07/10 02:42:26;;;;;;;18.98;14.43;;;;;;;19.73;91.48;100678.70;1647814;83;27549;-78
2021/07/10 02:44:53;;;;;;;22.90;13.95;;;;;;;19.72;91.58;100676.50;1681565;83;26083;-78
2021/07/10 02:47:20;;;;;;;20.88;13.88;;;;;;;19.71;91.52;100681.67;1688280;83;25867;-79
2021/07/10 02:49:47;;;;;;;22.40;14.47;;;;;;;19.71;91.79;100690.34;1713593;83;26212;-79
2021/07/10 02:52:14;;;;;;;27.15;15.63;;;;;;;19.69;91.81;100689.24;1666353;83;25832;-79
2021/07/10 02:54:41;;;;;;;24.27;15.55;;;;;;;19.68;92.00;100693.02;1683927;83;28303;-78
2021/07/10 02:57:09;;;;;;;19.80;14.98;;;;;;;19.66;92.07;100686.17;1671181;82;25833;-78
2021/07/10 02:59:36;;;;;;;24.72;17.60;;;;;;;19.65;92.22;100690.77;1711061;82;25820;-79
2021/07/10 03:02:05;;;;;;;24.63;16.17;;;;;;;19.63;92.33;100686.11;1661515;83;25849;-78
2021/07/10 03:04:32;;;;;;;27.67;17.07;;;;;;;19.64;92.68;100690.50;1679793;83;26011;-78
2021/07/10 03:06:59;;;;;;;25.30;16.30;;;;;;;19.63;92.60;100682.59;1679137;83;28223;-78
2021/07/10 03:09:26;;;;;;;24.87;15.90;;;;;;;19.62;92.69;100677.69;1715181;83;25966;-78
2021/07/10 03:11:53;;;;;;;19.65;14.90;;;;;;;19.61;92.58;100679.30;1663282;83;25863;-79
2021/07/10 03:14:20;;;;;;;24.90;16.07;;;;;;;19.60;92.75;100683.91;1687186;83;25885;-79
2021/07/10 03:16:47;;;;;;;23.50;15.93;;;;;;;19.60;92.75;100684.43;1685021;83;25805;-79
2021/07/10 03:19:14;;;;;;;24.82;15.80;;;;;;;19.61;92.78;100683.38;1714368;82;28192;-78
2021/07/10 03:21:42;;;;;;;22.67;16.17;;;;;;;19.60;92.84;100685.79;1662171;83;25936;-79
2021/07/10 03:24:09;;;;;;;24.47;16.97;;;;;;;19.61;92.86;100694.25;1687556;82;25844;-78
2021/07/10 03:26:36;;;;;;;25.75;18.50;;;;;;;19.62;92.96;100694.52;1687526;83;25856;-78
2021/07/10 03:29:03;;;;;;;28.42;17.23;;;;;;;19.61;93.03;100695.61;1714256;82;26559;-79
2021/07/10 03:31:30;;;;;;;24.30;17.90;;;;;;;19.63;93.08;100701.06;1646843;83;27284;-79
2021/07/10 03:33:58;;;;;;;30.32;18.95;;;;;;;19.68;93.13;100705.77;1692605;82;26572;-79
2021/07/10 03:36:28;;;;;;;24.43;18.00;;;;;;;19.72;93.22;100709.12;1717196;82;26233;-78
2021/07/10 03:38:55;;;;;;;27.13;19.20;;;;;;;19.75;93.04;100712.72;1754154;80;25927;-79
2021/07/10 03:41:22;;;;;;;30.17;19.73;;;;;;;19.72;93.04;100713.20;1731744;80;26176;-78
2021/07/10 03:43:49;;;;;;;26.62;21.02;;;;;;;19.70;93.13;100709.91;1729009;80;28181;-78
2021/07/10 03:46:16;;;;;;;34.60;21.37;;;;;;;19.70;93.21;100713.98;1724741;80;25867;-78
2021/07/10 03:48:43;;;;;;;29.70;22.98;;;;;;;19.69;93.31;100724.58;1703101;80;25922;-78
2021/07/10 03:51:10;;;;;;;32.33;21.90;;;;;;;19.70;93.39;100721.30;1720569;80;25814;-79
2021/07/10 03:53:37;;;;;;;31.45;22.40;;;;;;;19.67;93.53;100722.64;1734339;80;26489;-78
2021/07/10 03:56:04;;;;;;;30.27;21.30;;;;;;;19.67;93.62;100729.95;1704045;80;28199;-79
2021/07/10 03:58:31;;;;;;;32.53;22.35;;;;;;;19.67;93.61;100732.67;1702168;80;25779;-78
2021/07/10 04:00:59;;;;;;;27.77;21.42;;;;;;;19.66;93.56;100726.94;1709701;80;26067;-79
2021/07/10 04:03:26;;;;;;;30.75;21.70;;;;;;;19.64;93.58;100733.15;1732615;80;25828;-79
2021/07/10 04:05:53;;;;;;;27.22;19.67;;;;;;;19.61;93.65;100734.45;1723727;80;25789;-79
2021/07/10 04:08:20;;;;;;;27.00;19.30;;;;;;;19.58;93.54;100734.12;1666916;82;27469;-79
2021/07/10 04:10:47;;;;;;;21.05;17.05;;;;;;;19.56;93.17;100734.90;1691645;82;25955;-78
2021/07/10 04:13:14;;;;;;;28.20;18.67;;;;;;;19.58;92.97;100736.31;1656814;82;26171;-79
2021/07/10 04:15:41;;;;;;;26.15;18.15;;;;;;;19.58;92.97;100742.27;1687801;82;26153;-78
2021/07/10 04:18:08;;;;;;;16.23;12.30;;;;;;;19.56;92.64;100742.52;1681533;82;26624;-78
2021/07/10 04:20:36;;;;;;;11.50;8.43;;;;;;;19.53;91.73;100749.79;1722561;82;27445;-79
2021/07/10 04:23:05;;;;;;;8.65;6.30;;;;;;;19.44;90.54;100753.94;1671492;82;26548;-78
2021/07/10 04:25:33;;;;;;;7.97;4.78;;;;;;;19.37;89.31;100755.99;1640544;83;25921;-79
2021/07/10 04:28:00;;;;;;;9.43;4.75;;;;;;;19.29;88.65;100763.10;1638934;84;26538;-78
2021/07/10 04:30:27;;;;;;;6.80;4.80;;;;;;;19.19;88.02;100767.80;1733473;81;25842;-78
2021/07/10 04:32:54;;;;;;;12.68;5.60;;;;;;;19.08;87.91;100779.50;1705975;80;27452;-78
2021/07/10 04:35:22;;;;;;;10.78;5.78;;;;;;;19.00;87.93;100779.87;1727262;80;25917;-79
2021/07/10 04:37:50;;;;;;;7.50;4.05;;;;;;;18.94;87.52;100782.18;1706591;82;25797;-79
2021/07/10 04:40:17;;;;;;;3.98;3.40;;;;;;;18.87;87.26;100786.06;1730050;81;26020;-79
2021/07/10 04:42:44;;;;;;;6.58;3.55;;;;;;;18.78;87.26;100776.09;1714027;81;26465;-79
2021/07/10 04:45:13;;;;;;;7.78;2.83;;;;;;;18.75;87.07;100790.67;1708218;81;27602;-78
2021/07/10 04:47:41;;;;;;;5.08;3.08;;;;;;;18.68;86.61;100787.23;1711412;81;26567;-78
2021/07/10 04:50:11;;;;;;;20.12;9.55;;;;;;;18.61;86.14;100796.84;1713638;81;25780;-78
2021/07/10 04:52:40;;;;;;;8.17;3.70;;;;;;;18.54;86.39;100792.05;1713657;81;25942;-78
2021/07/10 04:55:08;;;;;;;7.08;3.75;;;;;;;18.52;86.31;100797.44;1715807;81;26514;-78
2021/07/10 04:57:35;;;;;;;7.45;3.85;;;;;;;18.50;86.61;100803.63;1691805;81;27367;-78
2021/07/10 05:00:06;;;;;;;4.22;3.20;;;;;;;18.50;86.98;100797.65;1706499;81;25942;-78
2021/07/10 05:02:33;;;;;;;3.37;2.83;;;;;;;18.52;87.13;100797.44;1718815;81;25148;-79
2021/07/10 05:05:00;;;;;;;4.58;2.40;;;;;;;18.48;86.50;100800.32;1690404;83;25590;-79
2021/07/10 05:07:27;;;;;;;3.90;2.67;;;;;;;18.45;86.92;100802.97;1690376;81;25778;-78
2021/07/10 05:09:54;;;;;;;6.28;3.37;;;;;;;18.45;86.92;100803.77;1740413;81;27269;-79
2021/07/10 05:12:22;;;;;;;5.97;2.62;;;;;;;18.41;86.33;100803.91;1719738;81;25944;-78
2021/07/10 05:14:50;;;;;;;3.42;1.98;;;;;;;18.41;86.07;100794.41;1684225;82;26437;-78
2021/07/10 05:17:21;;;;;;;4.72;2.30;;;;;;;18.36;85.78;100807.87;1687970;83;26144;-78
2021/07/10 05:19:48;;;;;;;4.22;2.10;;;;;;;18.28;85.58;100809.53;1708652;83;25830;-78
2021/07/10 05:22:17;;;;;;;5.25;2.00;;;;;;;18.24;85.78;100806.99;1715622;81;27405;-79
2021/07/10 05:24:44;;;;;;;3.37;2.42;;;;;;;18.19;85.30;100819.60;1747018;80;26539;-78
2021/07/10 05:27:11;;;;;;;3.37;2.33;;;;;;;18.13;85.30;100813.75;1720753;80;25841;-78
2021/07/10 05:29:38;;;;;;;5.22;2.45;;;;;;;18.12;85.94;100816.98;1770621;80;26324;-78
2021/07/10 05:32:07;;;;;;;3.67;1.95;;;;;;;18.13;85.58;100811.88;1749843;80;25792;-78
2021/07/10 05:34:34;;;;;;;8.33;2.22;;;;;;;18.10;85.42;100802.00;1736554;80;28163;-78
2021/07/10 05:37:01;;;;;;;3.95;1.95;;;;;;;18.10;85.35;100801.48;1693596;81;25792;-79
2021/07/10 05:39:28;;;;;;;4.03;1.82;;;;;;;18.07;84.88;100792.99;1740491;81;25772;-79
2021/07/10 05:41:55;;;;;;;6.62;3.22;;;;;;;18.01;85.27;100797.95;1694211;82;25913;-78
2021/07/10 05:44:22;;;;;;;6.42;3.47;;;;;;;18.02;85.56;100814.02;1690945;82;25774;-78
2021/07/10 05:46:49;;;;;;;5.05;2.95;;;;;;;18.04;85.70;100802.41;1659120;82;27526;-77
2021/07/10 05:49:16;;;;;;;4.72;2.90;;;;;;;18.07;85.50;100818.75;1716912;82;25997;-78
2021/07/10 05:51:43;;;;;;;4.37;2.37;;;;;;;18.08;85.62;100819.86;1693241;82;25823;-78
2021/07/10 05:54:10;;;;;;;6.60;2.40;;;;;;;18.11;85.57;100822.65;1674762;83;25836;-77
2021/07/10 05:56:37;;;;;;;5.12;2.05;;;;;;;18.11;85.92;100819.94;1665726;82;25865;-77
2021/07/10 05:59:05;;;;;;;10.00;5.47;;;;;;;18.17;86.50;100816.30;1713558;82;27456;-78
2021/07/10 06:01:33;;;;;;;5.78;2.87;;;;;;;18.27;86.50;100826.05;1688095;82;26022;-78
2021/07/10 06:04:01;;;;;;;4.35;3.20;;;;;;;18.31;85.85;100833.49;1672294;83;26545;-78
2021/07/10 06:06:28;;;;;;;7.72;2.45;;;;;;;18.33;85.22;100836.80;1648895;84;25778;-78
2021/07/10 06:08:55;;;;;;;7.67;2.80;;;;;;;18.35;85.28;100842.81;1718221;82;26014;-78
2021/07/10 06:11:22;;;;;;;5.42;3.15;;;;;;;18.35;85.45;100846.87;1674432;82;27477;-77
2021/07/10 06:13:50;;;;;;;3.37;2.20;;;;;;;18.44;85.50;100850.13;1668618;82;25352;-77
2021/07/10 06:16:18;;;;;;;5.58;2.27;;;;;;;18.52;85.51;100851.69;1719234;81;25781;-78
2021/07/10 06:18:45;;;;;;;4.97;1.92;;;;;;;18.61;85.38;100855.70;1691604;82;26498;-78
2021/07/10 06:21:12;;;;;;;3.40;1.90;;;;;;;18.71;85.56;100854.06;1670070;82;25757;-77
2021/07/10 06:23:43;;;;;;;3.50;2.08;;;;;;;18.79;85.01;100853.75;1685537;82;27447;-77
2021/07/10 06:26:08;;;;;;;5.87;2.10;;;;;;;18.85;84.57;100850.61;1685302;82;26555;-77
2021/07/10 06:28:35;;;;;;;4.35;2.17;;;;;;;18.91;84.32;100846.44;1713794;82;25719;-78
2021/07/10 06:31:02;;;;;;;4.33;2.95;;;;;;;18.95;83.87;100853.56;1649671;84;26008;-78
2021/07/10 06:33:29;;;;;;;2.33;1.62;;;;;;;19.00;82.96;100846.38;1673400;84;26382;-78
2021/07/10 06:35:56;;;;;;;1.77;1.40;;;;;;;19.04;82.74;100837.23;1661861;84;27558;-77
2021/07/10 06:38:23;;;;;;;5.60;1.42;;;;;;;19.04;82.81;100844.02;1711852;82;26780;-78
2021/07/10 06:40:50;;;;;;;4.03;1.60;;;;;;;19.08;81.92;100841.95;1691650;81;25863;-78
2021/07/10 06:43:17;;;;;;;3.50;1.75;;;;;;;19.13;81.76;100841.25;1687603;83;26092;-78
2021/07/10 06:45:44;;;;;;;2.37;1.60;;;;;;;19.22;82.07;100846.63;1674721;82;25902;-78
2021/07/10 06:48:11;;;;;;;4.53;1.52;;;;;;;19.36;81.69;100846.69;1719222;82;27229;-77
2021/07/10 06:50:38;;;;;;;3.55;1.90;;;;;;;19.51;81.28;100848.91;1698404;82;26062;-78
2021/07/10 06:53:05;;;;;;;2.12;1.60;;;;;;;19.68;81.42;100851.17;1687098;82;25799;-77
2021/07/10 06:55:32;;;;;;;3.90;1.37;;;;;;;19.81;81.12;100846.83;1704675;81;25763;-77
2021/07/10 06:57:59;;;;;;;8.80;1.30;;;;;;;19.85;80.19;100855.62;1727553;81;25948;-78
2021/07/10 07:00:26;;;;;;;7.10;1.95;;;;;;;19.99;79.95;100846.66;1697641;82;27412;-78
2021/07/10 07:02:53;;;;;;;3.92;1.42;;;;;;;20.05;79.61;100849.77;1673115;83;25912;-78
2021/07/10 07:05:20;;;;;;;3.33;1.37;;;;;;;20.09;78.51;100841.94;1668271;84;25823;-78
2021/07/10 07:07:47;;;;;;;3.62;1.70;;;;;;;20.08;78.83;100834.87;1664857;84;25964;-78
2021/07/10 07:10:14;;;;;;;3.75;1.60;;;;;;;20.05;77.52;100840.78;1697566;82;25327;-78
2021/07/10 07:12:42;;;;;;;3.95;1.67;;;;;;;19.96;77.87;100840.34;1661327;82;27257;-78
2021/07/10 07:15:10;;;;;;;2.62;1.40;;;;;;;20.00;78.42;100831.45;1680020;82;26492;-78
2021/07/10 07:17:38;;;;;;;4.70;1.80;;;;;;;20.12;78.47;100831.95;1700955;82;25955;-78
2021/07/10 07:20:10;;;;;;;3.95;1.70;;;;;;;20.20;77.85;100840.57;1718257;82;26452;-78
2021/07/10 07:22:37;;;;;;;3.02;1.87;;;;;;;20.23;77.03;100834.63;1738661;80;25777;-78
2021/07/10 07:25:05;;;;;;;2.75;1.30;;;;;;;20.24;77.18;100825.41;1728654;80;27431;-78
2021/07/10 07:27:32;;;;;;;3.58;1.60;;;;;;;20.23;76.63;100826.47;1738962;80;26458;-78
2021/07/10 07:29:59;;;;;;;2.50;1.62;;;;;;;20.20;76.48;100832.41;1693862;82;25923;-78
2021/07/10 07:32:27;;;;;;;4.33;1.57;;;;;;;20.17;76.34;100838.82;1675199;82;25793;-78
2021/07/10 07:34:54;;;;;;;4.97;1.40;;;;;;;20.18;76.91;100843.20;1692187;82;25341;-77
2021/07/10 07:37:21;;;;;;;5.28;1.10;;;;;;;20.26;77.41;100848.28;1702760;82;28289;-78
2021/07/10 07:39:48;;;;;;;1.92;1.22;;;;;;;20.37;76.53;100844.68;1719742;81;25966;-77
2021/07/10 07:42:17;;;;;;;4.37;1.32;;;;;;;20.42;77.27;100844.78;1655301;83;25399;-78
2021/07/10 07:44:45;;;;;;;1.10;1.00;;;;;;;20.46;76.20;100852.22;1667595;84;25795;-77
2021/07/10 07:47:15;;;;;;;1.12;1.00;;;;;;;20.45;75.64;100861.44;1667648;84;25950;-77
2021/07/10 07:49:44;;;;;;;3.98;1.10;;;;;;;20.42;74.86;100864.63;1712599;82;27432;-78
2021/07/10 07:52:12;;;;;;;0.95;0.95;;;;;;;20.45;75.86;100862.80;1663745;82;25794;-78
2021/07/10 07:54:39;;;;;;;1.87;1.10;;;;;;;20.49;75.20;100864.48;1756912;80;25866;-78
2021/07/10 07:57:07;;;;;;;3.60;1.02;;;;;;;20.61;74.84;100866.09;1724671;80;25561;-78
2021/07/10 07:59:34;;;;;;;1.80;0.75;;;;;;;20.73;74.44;100867.36;1716657;82;25799;-78
2021/07/10 08:02:02;;;;;;;2.47;1.00;;;;;;;20.92;74.11;100869.30;1703446;82;28072;-78
2021/07/10 08:04:29;;;;;;;1.70;0.80;;;;;;;20.98;74.33;100869.69;1716880;80;26598;-78
2021/07/10 08:06:56;;;;;;;3.52;0.88;;;;;;;20.99;73.52;100870.80;1694710;82;25921;-78
2021/07/10 08:09:24;;;;;;;3.02;1.12;;;;;;;21.00;72.45;100875.16;1720790;82;26312;-78
2021/07/10 08:11:51;;;;;;;9.55;1.67;;;;;;;21.10;73.36;100875.37;1705939;80;25731;-77
2021/07/10 08:14:18;;;;;;;2.30;1.20;;;;;;;21.21;72.61;100876.34;1717080;80;27625;-78
2021/07/10 08:16:45;;;;;;;3.98;1.92;;;;;;;21.17;72.00;100886.89;1690236;82;25900;-78
2021/07/10 08:19:12;;;;;;;4.87;1.20;;;;;;;21.12;71.51;100887.36;1719205;82;25761;-78
2021/07/10 08:21:40;;;;;;;3.22;1.10;;;;;;;21.12;72.26;100886.00;1696383;82;26058;-78
2021/07/10 08:24:07;;;;;;;2.90;0.93;;;;;;;21.13;71.69;100891.20;1662061;83;25832;-78
2021/07/10 08:26:34;;;;;;;1.90;1.50;;;;;;;21.18;72.38;100883.11;1690076;83;27484;-77
2021/07/10 08:29:01;;;;;;;2.87;1.92;;;;;;;21.27;72.62;100884.87;1710141;82;25829;-78
2021/07/10 08:31:28;;;;;;;1.80;1.12;;;;;;;21.33;71.24;100896.13;1700049;80;25359;-77
2021/07/10 08:33:55;;;;;;;2.55;1.77;;;;;;;21.30;70.86;100901.54;1719425;80;25800;-77
2021/07/10 08:36:22;;;;;;;2.00;1.65;;;;;;;21.25;70.91;100898.76;1698631;82;25923;-77
2021/07/10 08:38:50;;;;;;;3.55;1.50;;;;;;;21.20;71.34;100904.13;1717248;82;28143;-78
2021/07/10 08:41:17;;;;;;;4.45;1.60;;;;;;;21.26;71.06;100899.56;1726360;80;25832;-78
2021/07/10 08:43:44;;;;;;;3.50;1.25;;;;;;;21.32;71.19;100913.58;1679750;82;26546;-77
2021/07/10 08:46:16;;;;;;;2.87;1.60;;;;;;;21.38;71.62;100913.38;1681569;82;25870;-77
2021/07/10 08:48:43;;;;;;;1.92;1.60;;;;;;;21.43;71.06;100918.08;1713002;82;26154;-78
2021/07/10 08:51:11;;;;;;;2.12;1.47;;;;;;;21.48;71.34;100920.89;1673778;82;28268;-77
2021/07/10 08:53:38;;;;;;;3.65;1.70;;;;;;;21.47;69.69;100922.78;1663484;82;25903;-78
2021/07/10 08:56:07;;;;;;;5.35;1.35;;;;;;;21.46;69.83;100928.49;1686578;82;25892;-78
2021/07/10 08:58:36;;;;;;;6.05;2.02;;;;;;;21.50;69.25;100935.09;1719140;81;26212;-78
2021/07/10 09:01:09;;;;;;;2.30;1.87;;;;;;;21.51;68.53;100938.92;1666679;82;25866;-78
2021/07/10 09:03:40;;;;;;;2.95;1.67;;;;;;;21.53;69.26;100943.31;1701450;83;28206;-78
2021/07/10 09:06:08;;;;;;;3.52;1.70;;;;;;;21.47;68.47;100936.41;1676855;83;25895;-78
2021/07/10 09:08:35;;;;;;;6.12;1.80;;;;;;;21.45;68.44;100947.27;1700848;83;25956;-78
2021/07/10 09:11:13;;;;;;;4.53;2.12;;;;;;;21.34;67.76;100945.48;1671985;82;25886;-78
2021/07/10 09:13:53;;;;;;;2.75;1.80;;;;;;;21.28;67.68;100948.66;1702832;82;25793;-78
2021/07/10 09:16:32;;;;;;;3.27;1.92;;;;;;;21.20;68.61;100944.98;1709541;82;27488;-78
2021/07/10 09:19:03;;;;;;;2.55;1.75;;;;;;;21.12;68.35;100957.66;1729541;81;26562;-77
2021/07/10 09:21:39;;;;;;;;;;;;;;;21.06;67.83;100954.57;1675721;81;25909;-78
2021/07/10 09:24:10;;;;;;;5.08;1.90;;;;;;;20.96;67.93;100952.98;1695286;82;26155;-79
2021/07/10 09:26:42;;;;;;;6.20;2.10;;;;;;;20.87;68.12;100959.89;1729209;81;26500;-78
2021/07/10 09:29:14;;;;;;;4.80;2.90;;;;;;;20.85;69.00;100957.16;1694822;82;26669;-78
2021/07/10 09:31:48;;;;;;;5.33;3.30;;;;;;;20.80;68.73;100949.72;1726060;81;25893;-79
2021/07/10 09:34:21;;;;;;;12.80;5.33;;;;;;;20.78;69.01;100960.03;1680202;81;25705;-78
2021/07/10 09:37:00;;;;;;;6.45;1.98;;;;;;;20.76;68.94;100961.61;1700175;81;25621;-79
2021/07/10 09:39:40;;;;;;;4.08;1.87;;;;;;;20.74;69.40;100957.51;1693754;82;25773;-79
2021/07/10 09:42:06;;;;;;;6.42;1.75;;;;;;;20.75;69.68;100965.42;1707335;81;28167;-79
2021/07/10 09:58:42;;;;;;;3.95;1.40;;;;;;;21.09;67.75;100979.11;1807686;77;25592;-78
2021/07/10 10:01:36;;;;;;;3.05;1.30;;;;;;;20.85;68.39;100987.91;1722170;82;26063;-79
2021/07/10 10:04:23;;;;;;;2.42;1.17;;;;;;;20.71;68.41;100993.37;1728003;81;27465;-79
2021/07/10 10:06:51;;;;;;;1.92;1.40;;;;;;;20.59;68.90;100993.97;1717794;81;25793;-79
2021/07/10 10:09:24;;;;;;;5.33;1.67;;;;;;;20.55;69.55;100996.89;1674356;81;25821;-79
2021/07/10 10:11:57;;;;;;;3.22;2.17;;;;;;;20.49;68.72;101004.63;1728211;81;25754;-79
2021/07/10 10:14:30;;;;;;;2.00;1.80;;;;;;;20.46;69.28;101011.94;1740151;82;25720;-78
2021/07/10 10:16:58;;;;;;;5.03;2.10;;;;;;;20.42;69.20;101004.77;1706583;83;27478;-79
2021/07/10 10:19:29;;;;;;;3.25;1.90;;;;;;;20.44;69.34;101009.47;1662354;83;25818;-79
2021/07/10 10:22:00;;;;;;;2.95;1.90;;;;;;;20.42;69.05;101004.77;1738754;81;25785;-79
2021/07/10 10:24:29;;;;;;;5.05;2.65;;;;;;;20.41;68.83;101005.02;1723246;82;25803;-78
2021/07/10 10:26:58;;;;;;;2.20;1.32;;;;;;;20.39;69.39;101000.36;1647701;84;25842;-78
2021/07/10 10:29:28;;;;;;;3.62;2.10;;;;;;;20.43;69.54;101001.52;1662165;81;27926;-79
2021/07/10 10:31:56;;;;;;;1.62;1.40;;;;;;;20.50;69.96;101009.02;1740678;81;26424;-78
2021/07/10 10:34:23;;;;;;;2.52;1.50;;;;;;;20.53;69.34;101012.63;1722166;82;26554;-78
2021/07/10 10:36:52;;;;;;;3.72;2.20;;;;;;;20.51;69.61;101012.02;1677309;81;26396;-79
2021/07/10 10:39:29;;;;;;;3.77;2.02;;;;;;;20.52;69.97;101015.05;1681083;82;25929;-78
2021/07/10 10:42:01;;;;;;;1.32;1.25;;;;;;;20.54;70.02;101012.91;1708826;82;27231;-79
2021/07/10 10:44:38;;;;;;;2.25;1.67;;;;;;;20.47;69.19;101017.13;1735905;81;26641;-78
2021/07/10 10:47:08;;;;;;;2.98;1.50;;;;;;;20.42;68.93;101017.58;1692151;82;25818;-79
2021/07/10 10:49:43;;;;;;;5.90;2.15;;;;;;;20.41;69.21;101019.46;1688922;81;26642;-78
2021/07/10 10:52:22;;;;;;;5.42;2.75;;;;;;;20.48;69.88;101024.77;1733725;81;25307;-78
2021/07/10 10:55:09;;;;;;;1.85;1.55;;;;;;;20.63;69.97;101020.47;1710584;83;27518;-78
2021/07/10 10:57:46;;;;;;;7.65;2.80;;;;;;;20.85;70.42;101016.50;1655515;84;25910;-78
2021/07/10 11:00:28;;;;;;;11.40;6.10;;;;;;;21.04;70.22;101020.70;1657478;84;25881;-78
2021/07/10 11:03:02;;;;;;;9.03;5.08;;;;;;;21.18;69.70;101018.50;1709366;83;26571;-78
2021/07/10 11:05:37;;;;;;;3.92;2.60;;;;;;;21.18;68.63;101021.22;1661315;84;25934;-78
2021/07/10 11:08:23;;;;;;;9.40;5.15;;;;;;;21.17;68.30;101023.67;1708519;83;27561;-78
2021/07/10 11:11:01;;;;;;;8.43;5.85;;;;;;;21.11;68.16;101026.83;1649349;84;25885;-78
2021/07/10 11:13:38;;;;;;;4.45;3.65;;;;;;;21.09;67.94;101030.86;1700965;83;25909;-78
2021/07/10 11:16:14;;;;;;;3.80;2.77;;;;;;;21.09;68.64;101034.95;1700772;83;25902;-78
2021/07/10 11:18:58;;;;;;;3.72;2.98;;;;;;;21.05;67.91;101035.98;1649579;83;25807;-78
2021/07/10 11:21:48;;;;;;;3.72;1.60;;;;;;;21.03;67.88;101035.41;1629879;85;27382;-78
2021/07/10 11:24:22;;;;;;;3.77;2.58;;;;;;;21.08;68.33;101034.67;1685960;84;25883;-78
2021/07/10 11:27:00;;;;;;;4.60;2.20;;;;;;;21.11;68.59;101034.16;1679011;84;26529;-78
2021/07/10 11:29:37;;;;;;;2.85;2.05;;;;;;;21.14;68.64;101031.80;1667465;84;25827;-78
2021/07/10 11:32:25;;;;;;;2.80;1.40;;;;;;;21.17;68.43;101035.94;1641017;84;25869;-78
2021/07/10 11:34:59;;;;;;;4.10;1.55;;;;;;;21.18;68.13;101031.59;1700554;83;27601;-78
2021/07/10 11:37:32;;;;;;;3.47;2.67;;;;;;;21.22;68.28;101038.73;1660190;84;25773;-78
2021/07/10 11:40:01;;;;;;;4.08;2.92;;;;;;;21.29;68.58;101040.77;1617929;84;25920;-78
2021/07/10 11:42:37;;;;;;;5.28;3.52;;;;;;;21.35;67.76;101031.08;1641048;84;25819;-78